createdAt,value
2022-09-24T00:01:23.701Z,2.42
2022-09-24T00:03:54.282Z,1.38
2022-09-24T00:06:21.005Z,3.20
2022-09-24T00:08:48.797Z,3.13
2022-09-24T00:13:41.794Z,2.70
2022-09-24T00:16:10.240Z,3.05
2022-09-24T00:18:37.076Z,1.27
2022-09-24T00:21:17.257Z,1.00
2022-09-24T00:23:44.062Z,3.65
2022-09-24T00:26:31.893Z,1.73
2022-09-24T00:28:58.701Z,1.77
2022-09-24T00:31:25.440Z,1.85
2022-09-24T00:33:52.426Z,2.47
2022-09-24T00:36:22.208Z,2.80
2022-09-24T00:38:50.243Z,3.70
2022-09-24T00:41:16.958Z,4.15
2022-09-24T00:43:43.422Z,2.13
2022-09-24T00:46:18.731Z,2.53
2022-09-24T00:48:46.449Z,1.88
2022-09-24T00:51:15.985Z,1.67
2022-09-24T00:53:43.807Z,3.15
2022-09-24T00:58:36.822Z,1.80
2022-09-24T01:01:07.257Z,3.30
2022-09-24T01:03:40.766Z,7.35
2022-09-24T01:06:08.179Z,2.00
2022-09-24T01:08:34.659Z,1.15
2022-09-24T01:11:03.818Z,2.40
2022-09-24T01:13:43.451Z,4.13
2022-09-24T01:16:14.145Z,2.15
2022-09-24T01:18:53.462Z,1.92
2022-09-24T01:21:25.450Z,1.45
2022-09-24T01:23:51.832Z,2.70
2022-09-24T01:26:44.654Z,2.38
2022-09-24T01:29:23.240Z,4.07
2022-09-24T01:31:53.405Z,2.75
2022-09-24T01:34:22.707Z,4.57
2022-09-24T01:36:50.262Z,2.58
2022-09-24T01:39:17.522Z,2.38
2022-09-24T01:41:44.967Z,1.98
2022-09-24T01:44:11.960Z,3.00
2022-09-24T01:46:39.132Z,3.15
2022-09-24T01:49:07.279Z,2.75
2022-09-24T01:51:52.300Z,2.13
2022-09-24T01:54:20.860Z,2.35
2022-09-24T01:57:14.004Z,1.88
2022-09-24T02:00:03.870Z,2.97
2022-09-24T02:02:37.240Z,2.58
2022-09-24T02:05:12.789Z,2.78
2022-09-24T02:07:42.467Z,1.35
2022-09-24T02:10:15.308Z,2.03
2022-09-24T02:12:43.094Z,2.13
2022-09-24T02:15:20.761Z,1.48
2022-09-24T02:20:14.913Z,3.00
2022-09-24T02:25:09.173Z,2.78
2022-09-24T02:27:35.756Z,4.97
2022-09-24T02:30:02.165Z,3.83
2022-09-24T02:32:31.579Z,2.70
2022-09-24T02:35:02.614Z,2.67
2022-09-24T02:37:29.416Z,4.20
2022-09-24T02:39:55.989Z,2.33
2022-09-24T02:42:22.511Z,5.15
2022-09-24T02:44:49.089Z,2.70
2022-09-24T02:47:15.410Z,3.45
2022-09-24T02:49:41.925Z,3.42
2022-09-24T02:52:08.354Z,1.67
2022-09-24T02:54:34.702Z,2.58
2022-09-24T02:57:01.088Z,4.35
2022-09-24T02:59:27.405Z,2.08
2022-09-24T03:01:53.822Z,4.15
2022-09-24T03:04:20.342Z,3.08
2022-09-24T03:06:46.691Z,4.47
2022-09-24T03:09:13.130Z,2.67
2022-09-24T03:11:40.072Z,2.17
2022-09-24T03:14:06.512Z,1.97
2022-09-24T03:16:33.723Z,1.65
2022-09-24T03:19:00.254Z,1.05
2022-09-24T03:21:26.650Z,2.00
2022-09-24T03:23:53.068Z,1.83
2022-09-24T03:26:19.414Z,1.90
2022-09-24T03:28:45.798Z,2.00
2022-09-24T03:31:12.528Z,4.22
2022-09-24T03:33:41.778Z,4.25
2022-09-24T03:36:09.651Z,3.75
2022-09-24T03:41:02.511Z,4.05
2022-09-24T03:43:29.322Z,3.40
2022-09-24T03:45:55.658Z,4.22
2022-09-24T03:48:22.949Z,7.68
2022-09-24T03:50:49.523Z,18.08
2022-09-24T03:53:16.231Z,30.92
2022-09-24T03:55:52.838Z,29.90
2022-09-24T03:58:19.158Z,25.92
2022-09-24T04:00:45.513Z,22.77
2022-09-24T04:03:11.918Z,18.90
2022-09-24T04:05:38.387Z,13.65
2022-09-24T04:08:07.473Z,11.27
2022-09-24T04:10:33.872Z,5.88
2022-09-24T04:13:00.188Z,4.50
2022-09-24T04:15:26.933Z,3.55
2022-09-24T04:17:54.586Z,2.70
2022-09-24T04:20:22.808Z,3.63
2022-09-24T04:22:53.830Z,4.85
2022-09-24T04:25:20.649Z,2.67
2022-09-24T04:27:47.384Z,3.40
2022-09-24T04:30:14.676Z,4.78
2022-09-24T04:32:41.465Z,3.95
2022-09-24T04:35:08.421Z,2.40
2022-09-24T04:37:34.881Z,3.80
2022-09-24T04:40:01.359Z,5.97
2022-09-24T04:42:27.715Z,2.35
2022-09-24T04:44:56.314Z,2.55
2022-09-24T04:47:25.944Z,3.03
2022-09-24T04:49:52.371Z,4.55
2022-09-24T04:52:18.673Z,3.72
2022-09-24T04:54:47.393Z,3.30
2022-09-24T04:57:14.687Z,4.47
2022-09-24T04:59:41.352Z,9.75
2022-09-24T05:02:09.848Z,4.07
2022-09-24T05:04:36.732Z,2.65
2022-09-24T05:07:03.684Z,3.72
2022-09-24T05:09:33.522Z,3.70
2022-09-24T05:11:59.844Z,1.75
2022-09-24T05:14:26.542Z,2.58
2022-09-24T05:16:52.923Z,4.53
2022-09-24T05:19:19.313Z,2.85
2022-09-24T05:21:46.319Z,3.65
2022-09-24T05:24:13.057Z,1.27
2022-09-24T05:26:57.874Z,1.48
2022-09-24T05:29:24.207Z,3.15
2022-09-24T05:31:50.566Z,2.40
2022-09-24T05:34:16.992Z,3.35
2022-09-24T05:36:44.013Z,1.33
2022-09-24T05:39:11.782Z,2.83
2022-09-24T05:44:05.029Z,3.40
2022-09-24T05:46:31.504Z,5.40
2022-09-24T05:48:57.918Z,4.88
2022-09-24T05:51:24.334Z,3.20
2022-09-24T05:53:50.750Z,2.58
2022-09-24T05:56:17.311Z,2.20
2022-09-24T05:58:43.646Z,2.20
2022-09-24T06:01:10.287Z,2.65
2022-09-24T06:03:36.598Z,2.88
2022-09-24T06:06:03.008Z,2.17
2022-09-24T06:08:30.519Z,2.97
2022-09-24T06:11:00.442Z,3.00
2022-09-24T06:13:26.837Z,2.63
2022-09-24T06:15:53.294Z,5.45
2022-09-24T06:18:19.684Z,5.07
2022-09-24T06:20:47.006Z,3.85
2022-09-24T06:23:14.175Z,4.50
2022-09-24T06:25:40.500Z,3.05
2022-09-24T06:28:06.899Z,3.70
2022-09-24T06:30:34.274Z,3.38
2022-09-24T06:33:11.623Z,3.83
2022-09-24T06:35:38.707Z,7.93
2022-09-24T06:38:05.837Z,4.13
2022-09-24T06:40:36.976Z,4.18
2022-09-24T06:43:04.179Z,7.05
2022-09-24T06:45:30.557Z,6.47
2022-09-24T06:47:57.900Z,3.67
2022-09-24T06:50:25.312Z,2.50
2022-09-24T06:52:51.813Z,4.15
2022-09-24T06:55:18.805Z,7.25
2022-09-24T06:57:45.811Z,4.17
2022-09-24T07:00:12.930Z,5.17
2022-09-24T07:02:39.610Z,6.18
2022-09-24T07:05:06.523Z,3.20
2022-09-24T07:07:33.706Z,4.07
2022-09-24T07:10:01.911Z,5.55
2022-09-24T07:12:29.049Z,2.80
2022-09-24T07:14:55.637Z,7.05
2022-09-24T07:17:21.988Z,3.92
2022-09-24T07:19:48.385Z,4.32
2022-09-24T07:22:14.692Z,5.72
2022-09-24T07:24:41.374Z,3.28
2022-09-24T07:27:08.443Z,6.15
2022-09-24T07:29:35.235Z,5.40
2022-09-24T07:32:02.039Z,4.70
2022-09-24T07:34:28.341Z,4.03
2022-09-24T07:36:55.810Z,5.35
2022-09-24T07:39:23.082Z,4.10
2022-09-24T07:41:52.113Z,4.65
2022-09-24T07:44:20.435Z,7.30
2022-09-24T07:46:47.666Z,4.97
2022-09-24T07:49:14.115Z,4.70
2022-09-24T07:51:40.474Z,5.00
2022-09-24T07:54:06.879Z,5.85
2022-09-24T07:56:33.302Z,3.42
2022-09-24T07:58:59.631Z,4.90
2022-09-24T08:01:26.460Z,3.25
2022-09-24T08:03:52.949Z,3.38
2022-09-24T08:06:25.137Z,4.93
2022-09-24T08:08:53.073Z,6.03
2022-09-24T08:11:20.769Z,3.67
2022-09-24T08:13:47.124Z,3.83
2022-09-24T08:16:13.771Z,2.97
2022-09-24T08:18:40.364Z,5.78
2022-09-24T08:21:09.254Z,3.17
2022-09-24T08:23:36.304Z,3.53
2022-09-24T08:26:03.070Z,2.92
2022-09-24T08:28:29.403Z,6.30
2022-09-24T08:31:00.381Z,7.87
2022-09-24T08:33:27.343Z,3.10
2022-09-24T08:35:53.719Z,3.85
2022-09-24T08:38:22.957Z,3.63
2022-09-24T08:41:05.098Z,2.75
2022-09-24T08:43:41.252Z,3.63
2022-09-24T08:46:33.749Z,3.35
2022-09-24T08:49:01.658Z,3.10
2022-09-24T08:51:32.805Z,4.85
2022-09-24T08:54:11.268Z,3.65
2022-09-24T08:56:38.777Z,4.20
2022-09-24T08:59:23.778Z,6.20
2022-09-24T09:01:59.400Z,3.65
2022-09-24T09:04:44.292Z,3.85
2022-09-24T09:07:20.103Z,2.85
2022-09-24T09:09:49.984Z,4.27
2022-09-24T09:12:38.320Z,5.35
2022-09-24T09:15:16.813Z,2.20
2022-09-24T09:17:52.318Z,2.60
2022-09-24T09:20:28.918Z,3.05
2022-09-24T09:25:25.787Z,2.47
2022-09-24T09:28:15.451Z,2.10
2022-09-24T09:31:06.961Z,2.42
2022-09-24T09:33:54.810Z,1.83
2022-09-24T09:36:27.079Z,1.58
2022-09-24T09:39:00.001Z,2.53
2022-09-24T09:41:40.388Z,1.85
2022-09-24T09:44:16.021Z,3.50
2022-09-24T09:46:46.481Z,3.43
2022-09-24T09:49:14.022Z,2.20
2022-09-24T09:51:42.010Z,2.08
2022-09-24T09:54:08.801Z,3.58
2022-09-24T09:56:36.933Z,2.20
2022-09-24T09:59:07.012Z,3.30
2022-09-24T10:01:34.991Z,2.55
2022-09-24T10:04:05.162Z,2.10
2022-09-24T10:06:32.982Z,4.20
2022-09-24T10:09:11.929Z,2.22
2022-09-24T10:11:38.310Z,2.67
2022-09-24T10:14:05.340Z,2.67
2022-09-24T10:16:35.745Z,2.90
2022-09-24T10:19:02.161Z,3.03
2022-09-24T10:21:35.911Z,1.92
2022-09-24T10:24:11.828Z,1.42
2022-09-24T10:26:44.528Z,2.03
2022-09-24T10:29:44.211Z,2.20
2022-09-24T10:32:16.250Z,3.03
2022-09-24T10:34:42.583Z,3.08
2022-09-24T10:37:16.188Z,4.40
2022-09-24T10:39:42.570Z,1.98
2022-09-24T10:42:25.395Z,1.80
2022-09-24T10:44:53.769Z,3.05
2022-09-24T10:47:20.408Z,1.42
2022-09-24T10:52:26.409Z,1.70
2022-09-24T10:55:02.698Z,2.38
2022-09-24T10:57:42.258Z,1.85
2022-09-24T11:00:16.123Z,2.08
2022-09-24T11:03:01.306Z,2.72
2022-09-24T11:05:31.716Z,2.70
2022-09-24T11:08:07.021Z,2.47
2022-09-24T11:10:56.798Z,3.33
2022-09-24T11:13:29.638Z,4.03
2022-09-24T11:15:59.250Z,3.38
2022-09-24T11:18:28.689Z,1.52
2022-09-24T11:21:03.203Z,2.35
2022-09-24T11:23:32.360Z,1.73
2022-09-24T11:26:18.945Z,2.42
2022-09-24T11:28:51.282Z,2.03
2022-09-24T11:31:22.998Z,2.72
2022-09-24T11:33:58.365Z,2.33
2022-09-24T11:36:30.886Z,2.28
2022-09-24T11:39:06.778Z,2.13
2022-09-24T11:41:33.083Z,1.90
2022-09-24T11:44:11.255Z,1.83
2022-09-24T11:46:37.789Z,1.73
2022-09-24T11:51:42.938Z,4.07
2022-09-24T11:54:21.434Z,0.93
2022-09-24T11:56:49.957Z,1.33
2022-09-24T11:59:16.263Z,2.53
2022-09-24T12:01:53.212Z,3.08
2022-09-24T12:04:29.279Z,1.70
2022-09-24T12:07:00.027Z,1.42
2022-09-24T12:09:37.642Z,2.38
2022-09-24T12:12:09.964Z,1.38
2022-09-24T12:14:45.415Z,3.80
2022-09-24T12:17:17.505Z,1.45
2022-09-24T12:19:50.263Z,2.35
2022-09-24T12:22:18.691Z,1.38
2022-09-24T12:24:58.485Z,0.85
2022-09-24T12:27:43.723Z,1.88
2022-09-24T12:30:31.778Z,3.38
2022-09-24T12:33:13.494Z,1.80
2022-09-24T12:35:58.662Z,2.17
2022-09-24T12:38:57.540Z,8.95
2022-09-24T12:41:26.679Z,1.55
2022-09-24T12:44:21.946Z,1.92
2022-09-24T12:46:52.032Z,2.05
2022-09-24T12:49:21.548Z,3.28
2022-09-24T12:51:47.926Z,2.05
2022-09-24T12:54:31.177Z,2.00
2022-09-24T12:57:10.705Z,1.77
2022-09-24T12:59:50.776Z,1.55
2022-09-24T13:02:26.546Z,3.17
2022-09-24T13:05:01.914Z,2.83
2022-09-24T13:07:33.277Z,2.40
2022-09-24T13:10:18.430Z,1.60
2022-09-24T13:12:45.005Z,1.52
2022-09-24T13:15:40.520Z,2.38
2022-09-24T13:18:10.145Z,3.40
2022-09-24T13:20:43.787Z,1.33
2022-09-24T13:23:19.538Z,1.80
2022-09-24T13:26:04.796Z,1.20
2022-09-24T13:28:51.338Z,2.10
2022-09-24T13:31:22.479Z,1.85
2022-09-24T13:33:54.889Z,1.92
2022-09-24T13:36:23.984Z,1.73
2022-09-24T13:39:09.304Z,1.42
2022-09-24T13:41:35.648Z,1.30
2022-09-24T13:44:17.516Z,1.65
2022-09-24T13:46:45.651Z,1.35
2022-09-24T13:49:22.386Z,1.27
2022-09-24T13:51:56.579Z,0.63
2022-09-24T13:54:25.405Z,1.95
2022-09-24T13:57:10.994Z,1.88
2022-09-24T13:59:37.596Z,1.20
2022-09-24T14:02:04.185Z,1.98
2022-09-24T14:04:30.659Z,2.28
2022-09-24T14:06:58.270Z,0.80
2022-09-24T14:09:27.127Z,3.22
2022-09-24T14:11:55.188Z,1.33
2022-09-24T14:14:26.709Z,1.70
2022-09-24T14:16:56.297Z,1.60
2022-09-24T14:19:25.546Z,0.32
2022-09-24T14:21:53.279Z,0.32
2022-09-24T14:24:19.657Z,0.40
2022-09-24T14:26:52.068Z,1.65
2022-09-24T14:29:20.406Z,1.42
2022-09-24T14:31:49.098Z,1.35
2022-09-24T14:34:51.021Z,2.83
2022-09-24T14:37:25.150Z,3.35
2022-09-24T14:39:56.725Z,0.73
2022-09-24T14:42:26.183Z,3.15
2022-09-24T14:44:52.953Z,1.98
2022-09-24T14:47:24.175Z,2.28
2022-09-24T14:49:50.562Z,1.92
2022-09-24T14:52:33.817Z,2.63
2022-09-24T14:55:19.945Z,0.75
2022-09-24T14:57:49.535Z,3.17
2022-09-24T15:00:19.527Z,1.48
2022-09-24T15:02:50.017Z,1.63
2022-09-24T15:05:16.637Z,0.98
2022-09-24T15:07:43.616Z,0.82
2022-09-24T15:10:21.855Z,3.60
2022-09-24T15:12:48.557Z,1.08
2022-09-24T15:15:15.173Z,1.35
2022-09-24T15:22:34.068Z,0.52
2022-09-24T15:25:02.507Z,1.48
2022-09-24T15:27:38.968Z,1.70
2022-09-24T15:32:32.545Z,0.80
2022-09-24T15:34:58.979Z,1.05
2022-09-24T15:37:26.507Z,0.70
2022-09-24T15:39:57.135Z,0.75
2022-09-24T15:42:24.416Z,1.50
2022-09-24T15:44:50.847Z,0.52
2022-09-24T15:47:17.683Z,2.47
2022-09-24T15:49:44.774Z,0.82
2022-09-24T15:54:37.374Z,1.20
2022-09-24T15:57:04.148Z,2.00
2022-09-24T15:59:30.584Z,1.40
2022-09-24T16:01:59.514Z,1.27
2022-09-24T16:04:25.894Z,0.63
2022-09-24T16:06:52.278Z,1.47
2022-09-24T16:09:18.660Z,1.43
2022-09-24T16:11:45.025Z,1.00
2022-09-24T16:14:11.427Z,0.65
2022-09-24T16:16:38.577Z,2.33
2022-09-24T16:19:07.043Z,1.38
2022-09-24T16:21:33.505Z,3.25
2022-09-24T16:24:00.762Z,0.70
2022-09-24T16:28:53.365Z,1.63
2022-09-24T16:31:19.848Z,0.90
2022-09-24T16:33:46.286Z,1.60
2022-09-24T16:36:12.975Z,2.28
2022-09-24T16:38:39.886Z,1.17
2022-09-24T16:41:06.676Z,1.20
2022-09-24T16:43:33.634Z,1.90
2022-09-24T16:46:04.160Z,0.95
2022-09-24T16:48:31.308Z,0.73
2022-09-24T16:51:11.154Z,0.93
2022-09-24T16:53:37.551Z,1.30
2022-09-24T16:56:07.730Z,1.17
2022-09-24T16:58:34.377Z,0.93
2022-09-24T17:01:04.270Z,1.02
2022-09-24T17:03:30.616Z,0.70
2022-09-24T17:05:56.973Z,2.10
2022-09-24T17:08:23.304Z,0.68
2022-09-24T17:10:51.597Z,1.55
2022-09-24T17:13:18.862Z,1.17
2022-09-24T17:15:45.281Z,0.63
2022-09-24T17:18:11.661Z,0.30
2022-09-24T17:20:37.990Z,1.65
2022-09-24T17:23:04.355Z,0.70
2022-09-24T17:25:30.673Z,1.10
2022-09-24T17:27:57.018Z,1.20
2022-09-24T17:30:23.393Z,2.03
2022-09-24T17:32:49.752Z,1.23
2022-09-24T17:35:16.223Z,1.63
2022-09-24T17:37:42.577Z,0.75
2022-09-24T17:40:09.199Z,1.92
2022-09-24T17:42:35.569Z,1.13
2022-09-24T17:45:01.884Z,0.82
2022-09-24T17:47:48.182Z,1.88
2022-09-24T17:50:16.083Z,2.07
2022-09-24T17:52:42.443Z,0.73
2022-09-24T17:55:08.831Z,3.35
2022-09-24T17:57:35.226Z,2.88
2022-09-24T18:00:01.981Z,1.77
2022-09-24T18:02:28.374Z,2.45
2022-09-24T18:04:54.726Z,1.85
2022-09-24T18:07:21.116Z,3.85
2022-09-24T18:09:47.483Z,13.02
2022-09-24T18:12:17.187Z,4.05
2022-09-24T18:14:45.859Z,1.65
2022-09-24T18:17:12.216Z,2.05
2022-09-24T18:19:38.544Z,1.50
2022-09-24T18:22:06.493Z,2.22
2022-09-24T18:24:33.411Z,2.13
2022-09-24T18:26:59.775Z,2.60
2022-09-24T18:29:26.231Z,2.63
2022-09-24T18:31:52.579Z,1.95
2022-09-24T18:34:18.897Z,2.17
2022-09-24T18:36:45.551Z,1.83
2022-09-24T18:39:13.401Z,2.10
2022-09-24T18:41:40.215Z,1.25
2022-09-24T18:44:06.882Z,1.40
2022-09-24T18:46:33.602Z,1.47
2022-09-24T18:49:00.465Z,1.45
2022-09-24T18:51:28.579Z,2.30
2022-09-24T18:53:56.458Z,2.92
2022-09-24T18:56:24.118Z,1.65
2022-09-24T18:59:00.543Z,1.98
2022-09-24T19:01:27.521Z,1.40
2022-09-24T19:03:54.683Z,1.05
2022-09-24T19:06:21.509Z,1.52
2022-09-24T19:08:49.051Z,0.90
2022-09-24T19:13:42.776Z,2.80
2022-09-24T19:16:10.523Z,7.90
2022-09-24T19:18:36.981Z,1.77
2022-09-24T19:21:06.538Z,1.85
2022-09-24T19:23:37.307Z,3.55
2022-09-24T19:26:04.576Z,1.48
2022-09-24T19:28:31.263Z,4.30
2022-09-24T19:30:57.711Z,3.20
2022-09-24T19:33:24.145Z,3.67
2022-09-24T19:36:04.655Z,4.15
2022-09-24T19:38:32.723Z,5.30
2022-09-24T19:41:03.480Z,5.85
2022-09-24T19:43:32.862Z,3.55
2022-09-24T19:46:06.687Z,4.13
2022-09-24T19:48:36.383Z,5.07
2022-09-24T19:51:03.572Z,2.92
2022-09-24T19:53:31.449Z,3.10
2022-09-24T19:55:58.391Z,3.85
2022-09-24T19:58:26.097Z,5.65
2022-09-24T20:00:53.166Z,3.83
2022-09-24T20:03:19.611Z,3.95
2022-09-24T20:05:45.970Z,1.67
2022-09-24T20:08:14.553Z,4.80
2022-09-24T20:10:41.182Z,3.53
2022-09-24T20:13:10.619Z,3.53
2022-09-24T20:15:41.284Z,2.33
2022-09-24T20:18:09.599Z,2.58
2022-09-24T20:20:35.946Z,1.98
2022-09-24T20:23:02.617Z,2.47
2022-09-24T20:25:47.450Z,2.20
2022-09-24T20:28:15.417Z,1.50
2022-09-24T20:30:45.408Z,3.20
2022-09-24T20:33:12.809Z,2.45
2022-09-24T20:35:39.923Z,1.13
2022-09-24T20:38:06.938Z,1.45
2022-09-24T20:40:36.525Z,1.77
2022-09-24T20:43:03.786Z,1.17
2022-09-24T20:45:31.290Z,2.38
2022-09-24T20:47:57.744Z,3.35
2022-09-24T20:50:24.178Z,3.25
2022-09-24T20:52:50.509Z,2.47
2022-09-24T20:55:16.951Z,2.42
2022-09-24T20:57:43.805Z,2.80
2022-09-24T21:00:14.914Z,2.25
2022-09-24T21:02:42.021Z,1.65
2022-09-24T21:05:11.639Z,2.67
2022-09-24T21:07:42.727Z,1.58
2022-09-24T21:10:10.468Z,2.47
2022-09-24T21:12:37.910Z,2.08
2022-09-24T21:15:04.971Z,0.93
2022-09-24T21:17:31.325Z,1.70
2022-09-24T21:19:57.968Z,2.95
2022-09-24T21:22:25.010Z,1.77
2022-09-24T21:24:51.742Z,1.80
2022-09-24T21:27:21.583Z,0.55
2022-09-24T21:29:48.270Z,1.58
2022-09-24T21:32:17.411Z,1.27
2022-09-24T21:34:44.445Z,0.95
2022-09-24T21:37:14.481Z,1.38
2022-09-24T21:39:42.516Z,0.93
2022-09-24T21:42:09.271Z,1.27
2022-09-24T21:44:35.711Z,2.15
2022-09-24T21:47:02.110Z,2.10
2022-09-24T21:49:28.437Z,1.13
2022-09-24T21:51:57.498Z,2.67
2022-09-24T21:54:23.880Z,2.88
2022-09-24T21:56:50.506Z,3.38
2022-09-24T21:59:35.549Z,2.30
2022-09-24T22:02:02.902Z,2.92
2022-09-24T22:04:31.011Z,3.15
2022-09-24T22:06:57.616Z,4.72
2022-09-24T22:09:24.810Z,3.75
2022-09-24T22:11:52.538Z,3.08
2022-09-24T22:14:18.921Z,1.90
2022-09-24T22:16:45.361Z,2.55
2022-09-24T22:19:11.775Z,2.00
2022-09-24T22:21:38.148Z,2.47
2022-09-24T22:24:05.170Z,2.58
2022-09-24T22:26:31.918Z,1.42
2022-09-24T22:28:58.735Z,2.67
2022-09-24T22:31:25.451Z,2.40
2022-09-24T22:34:10.512Z,1.10
2022-09-24T22:36:37.182Z,2.08
2022-09-24T22:39:04.112Z,1.83
2022-09-24T22:41:30.952Z,2.75
2022-09-24T22:43:57.828Z,1.30
2022-09-24T22:46:27.811Z,1.90
2022-09-24T22:48:54.614Z,1.85
2022-09-24T22:51:21.071Z,3.17
2022-09-24T22:53:47.401Z,2.05
2022-09-24T22:56:15.549Z,2.97
2022-09-24T22:58:43.774Z,2.20
2022-09-24T23:01:17.114Z,2.65
2022-09-24T23:03:44.286Z,1.83
2022-09-24T23:06:11.956Z,3.88
2022-09-24T23:11:12.739Z,1.98
2022-09-24T23:13:39.603Z,3.35
2022-09-24T23:16:07.033Z,1.63
2022-09-24T23:18:33.401Z,2.70
2022-09-24T23:20:59.834Z,1.70
2022-09-24T23:23:26.153Z,1.83
2022-09-24T23:25:52.974Z,2.28
2022-09-24T23:28:19.309Z,1.30
2022-09-24T23:30:45.635Z,2.60
2022-09-24T23:33:11.998Z,2.45
2022-09-24T23:35:38.317Z,2.90
2022-09-24T23:38:04.658Z,2.50
2022-09-24T23:40:31.088Z,2.35
2022-09-24T23:42:58.279Z,2.35
2022-09-24T23:45:24.643Z,2.08
2022-09-24T23:47:51.028Z,3.95
2022-09-24T23:50:17.382Z,2.45
2022-09-24T23:52:43.747Z,6.72
2022-09-24T23:55:10.122Z,1.77
2022-09-24T23:57:36.546Z,3.88
